Simpson, Nevada
Current Conditions -  °F | °C
As of 1:52 AM on Sunday 26 Oct 2014 (Local Time) from KBAN Reporting Station
Clear Clear  
Wind Chill: 37°   Ceiling: Unl
Heat Index: 45°   Visibility: NA
Dew Point: 28°   Wind: 18mph
Humidity: 52%   Direction: 230°SW
Pressure: 30.08"   Gusts: 28mph
Location:  38.7596°N, 119.34°W
Report Text: KBAN 260852Z AUTO 23016G24KT CLR 07/M02 A3008 RMK AO2 PK WND 24028/0829 SLP117 T00721022 58003 $
Loading
Personal Weather Stations






























Interactive Weather Map
Tropical Storm Tracking
New forecast layout! Learn more

10-Day Weather Forecast

Advertisements
Track Severe Weather on mobile